sensor_id;sensor_type;location;lat;lon;timestamp;P1;durP1;ratioP1;P2;durP2;ratioP2
39890;SDS011;25564;53.312;9.790;2023-03-26T00:02:16;6.03;;;2.60;;
39890;SDS011;25564;53.312;9.790;2023-03-26T00:04:47;5.33;;;2.40;;
39890;SDS011;25564;53.312;9.790;2023-03-26T00:07:19;12.73;;;2.77;;
39890;SDS011;25564;53.312;9.790;2023-03-26T00:09:51;9.37;;;2.70;;
39890;SDS011;25564;53.312;9.790;2023-03-26T00:12:23;12.90;;;2.40;;
39890;SDS011;25564;53.312;9.790;2023-03-26T00:14:55;9.50;;;3.07;;
39890;SDS011;25564;53.312;9.790;2023-03-26T00:17:27;11.53;;;2.80;;
39890;SDS011;25564;53.312;9.790;2023-03-26T00:19:58;14.23;;;2.43;;
39890;SDS011;25564;53.312;9.790;2023-03-26T00:22:29;10.63;;;2.80;;
39890;SDS011;25564;53.312;9.790;2023-03-26T00:25:01;9.87;;;2.10;;
39890;SDS011;25564;53.312;9.790;2023-03-26T00:27:32;10.73;;;2.57;;
39890;SDS011;25564;53.312;9.790;2023-03-26T00:30:04;6.10;;;2.03;;
39890;SDS011;25564;53.312;9.790;2023-03-26T00:32:36;10.53;;;2.60;;
39890;SDS011;25564;53.312;9.790;2023-03-26T00:35:08;9.53;;;2.77;;
39890;SDS011;25564;53.312;9.790;2023-03-26T00:37:41;7.13;;;2.03;;
39890;SDS011;25564;53.312;9.790;2023-03-26T00:40:13;8.50;;;2.27;;
39890;SDS011;25564;53.312;9.790;2023-03-26T00:42:44;6.57;;;2.50;;
39890;SDS011;25564;53.312;9.790;2023-03-26T00:45:16;10.67;;;2.47;;
39890;SDS011;25564;53.312;9.790;2023-03-26T00:47:51;9.10;;;2.60;;
39890;SDS011;25564;53.312;9.790;2023-03-26T00:50:23;8.80;;;2.30;;
39890;SDS011;25564;53.312;9.790;2023-03-26T00:52:54;5.83;;;2.43;;
39890;SDS011;25564;53.312;9.790;2023-03-26T00:55:25;6.07;;;2.20;;
39890;SDS011;25564;53.312;9.790;2023-03-26T00:57:57;9.97;;;2.53;;
39890;SDS011;25564;53.312;9.790;2023-03-26T01:00:29;5.40;;;1.70;;
39890;SDS011;25564;53.312;9.790;2023-03-26T01:03:05;6.65;;;2.05;;
39890;SDS011;25564;53.312;9.790;2023-03-26T01:10:53;4.23;;;1.20;;
39890;SDS011;25564;53.312;9.790;2023-03-26T01:13:34;7.37;;;2.57;;
39890;SDS011;25564;53.312;9.790;2023-03-26T01:16:13;8.30;;;1.63;;
39890;SDS011;25564;53.312;9.790;2023-03-26T01:18:50;5.97;;;1.47;;
39890;SDS011;25564;53.312;9.790;2023-03-26T01:21:23;8.00;;;1.70;;
39890;SDS011;25564;53.312;9.790;2023-03-26T01:24:07;4.97;;;2.13;;
39890;SDS011;25564;53.312;9.790;2023-03-26T01:29:49;6.37;;;1.50;;
39890;SDS011;25564;53.312;9.790;2023-03-26T01:38:30;4.70;;;1.80;;
39890;SDS011;25564;53.312;9.790;2023-03-26T01:44:10;7.57;;;2.20;;
39890;SDS011;25564;53.312;9.790;2023-03-26T01:47:07;10.10;;;2.57;;
39890;SDS011;25564;53.312;9.790;2023-03-26T01:49:40;9.83;;;2.27;;
39890;SDS011;25564;53.312;9.790;2023-03-26T01:52:13;6.17;;;2.30;;
39890;SDS011;25564;53.312;9.790;2023-03-26T01:54:47;12.60;;;2.15;;
39890;SDS011;25564;53.312;9.790;2023-03-26T01:57:32;5.87;;;2.27;;
39890;SDS011;25564;53.312;9.790;2023-03-26T02:00:14;6.17;;;2.17;;
39890;SDS011;25564;53.312;9.790;2023-03-26T02:05:33;6.33;;;1.90;;
39890;SDS011;25564;53.312;9.790;2023-03-26T02:08:19;7.67;;;2.93;;
39890;SDS011;25564;53.312;9.790;2023-03-26T02:10:55;12.17;;;3.00;;
39890;SDS011;25564;53.312;9.790;2023-03-26T02:13:28;7.67;;;2.13;;
39890;SDS011;25564;53.312;9.790;2023-03-26T02:16:01;8.77;;;3.00;;
39890;SDS011;25564;53.312;9.790;2023-03-26T02:18:34;10.87;;;2.27;;
39890;SDS011;25564;53.312;9.790;2023-03-26T02:21:13;11.47;;;2.57;;
39890;SDS011;25564;53.312;9.790;2023-03-26T02:23:51;9.50;;;1.87;;
39890;SDS011;25564;53.312;9.790;2023-03-26T02:26:33;9.03;;;1.87;;
39890;SDS011;25564;53.312;9.790;2023-03-26T02:29:05;11.63;;;1.87;;
39890;SDS011;25564;53.312;9.790;2023-03-26T02:31:36;6.03;;;2.17;;
39890;SDS011;25564;53.312;9.790;2023-03-26T02:34:08;7.83;;;1.90;;
39890;SDS011;25564;53.312;9.790;2023-03-26T02:36:39;7.27;;;1.60;;
39890;SDS011;25564;53.312;9.790;2023-03-26T02:39:13;5.63;;;1.73;;
39890;SDS011;25564;53.312;9.790;2023-03-26T02:41:44;5.37;;;1.50;;
39890;SDS011;25564;53.312;9.790;2023-03-26T02:44:16;10.97;;;1.70;;
39890;SDS011;25564;53.312;9.790;2023-03-26T02:46:47;7.60;;;1.80;;
39890;SDS011;25564;53.312;9.790;2023-03-26T02:49:18;8.50;;;1.60;;
39890;SDS011;25564;53.312;9.790;2023-03-26T02:51:50;6.03;;;1.70;;
39890;SDS011;25564;53.312;9.790;2023-03-26T02:54:26;6.05;;;1.70;;
39890;SDS011;25564;53.312;9.790;2023-03-26T02:56:57;7.80;;;1.80;;
39890;SDS011;25564;53.312;9.790;2023-03-26T02:59:29;9.33;;;1.73;;
39890;SDS011;25564;53.312;9.790;2023-03-26T03:02:01;7.97;;;1.93;;
39890;SDS011;25564;53.312;9.790;2023-03-26T03:04:32;9.73;;;2.23;;
39890;SDS011;25564;53.312;9.790;2023-03-26T03:07:03;7.80;;;1.90;;
39890;SDS011;25564;53.312;9.790;2023-03-26T03:09:35;9.17;;;1.77;;
39890;SDS011;25564;53.312;9.790;2023-03-26T03:12:07;17.73;;;2.03;;
39890;SDS011;25564;53.312;9.790;2023-03-26T03:14:38;13.10;;;2.57;;
39890;SDS011;25564;53.312;9.790;2023-03-26T03:17:10;8.23;;;1.93;;
39890;SDS011;25564;53.312;9.790;2023-03-26T03:19:42;7.47;;;1.83;;
39890;SDS011;25564;53.312;9.790;2023-03-26T03:22:13;4.83;;;1.33;;
39890;SDS011;25564;53.312;9.790;2023-03-26T03:24:45;8.67;;;1.90;;
39890;SDS011;25564;53.312;9.790;2023-03-26T03:27:16;7.83;;;1.77;;
39890;SDS011;25564;53.312;9.790;2023-03-26T03:29:53;11.77;;;1.80;;
39890;SDS011;25564;53.312;9.790;2023-03-26T03:32:25;7.07;;;1.53;;
39890;SDS011;25564;53.312;9.790;2023-03-26T03:34:57;6.40;;;1.53;;
39890;SDS011;25564;53.312;9.790;2023-03-26T03:37:29;4.63;;;1.93;;
39890;SDS011;25564;53.312;9.790;2023-03-26T03:40:01;8.97;;;2.17;;
39890;SDS011;25564;53.312;9.790;2023-03-26T03:42:32;11.93;;;2.40;;
39890;SDS011;25564;53.312;9.790;2023-03-26T03:45:04;11.13;;;2.07;;
39890;SDS011;25564;53.312;9.790;2023-03-26T03:47:37;6.70;;;1.80;;
39890;SDS011;25564;53.312;9.790;2023-03-26T03:50:09;13.73;;;1.77;;
39890;SDS011;25564;53.312;9.790;2023-03-26T03:52:42;8.83;;;2.43;;
39890;SDS011;25564;53.312;9.790;2023-03-26T03:55:13;6.73;;;1.17;;
39890;SDS011;25564;53.312;9.790;2023-03-26T03:57:45;4.20;;;1.37;;
39890;SDS011;25564;53.312;9.790;2023-03-26T04:00:16;9.43;;;1.97;;
39890;SDS011;25564;53.312;9.790;2023-03-26T04:02:48;8.10;;;2.23;;
39890;SDS011;25564;53.312;9.790;2023-03-26T04:05:20;4.30;;;1.70;;
39890;SDS011;25564;53.312;9.790;2023-03-26T04:07:51;8.13;;;2.33;;
39890;SDS011;25564;53.312;9.790;2023-03-26T04:10:23;7.60;;;1.80;;
39890;SDS011;25564;53.312;9.790;2023-03-26T04:12:54;12.13;;;2.10;;
39890;SDS011;25564;53.312;9.790;2023-03-26T04:15:25;9.23;;;1.93;;
39890;SDS011;25564;53.312;9.790;2023-03-26T04:17:57;10.47;;;1.43;;
39890;SDS011;25564;53.312;9.790;2023-03-26T04:20:28;6.83;;;2.33;;
39890;SDS011;25564;53.312;9.790;2023-03-26T04:23:00;11.63;;;3.10;;
39890;SDS011;25564;53.312;9.790;2023-03-26T04:25:31;9.00;;;1.70;;
39890;SDS011;25564;53.312;9.790;2023-03-26T04:28:06;10.60;;;1.97;;
39890;SDS011;25564;53.312;9.790;2023-03-26T04:30:39;9.50;;;2.03;;
39890;SDS011;25564;53.312;9.790;2023-03-26T04:33:12;7.43;;;1.83;;
39890;SDS011;25564;53.312;9.790;2023-03-26T04:35:46;6.97;;;1.70;;
39890;SDS011;25564;53.312;9.790;2023-03-26T04:38:21;9.75;;;2.13;;
39890;SDS011;25564;53.312;9.790;2023-03-26T04:40:52;7.83;;;1.80;;
39890;SDS011;25564;53.312;9.790;2023-03-26T04:43:24;5.90;;;1.70;;
39890;SDS011;25564;53.312;9.790;2023-03-26T04:45:56;7.73;;;1.60;;
39890;SDS011;25564;53.312;9.790;2023-03-26T04:48:28;9.57;;;2.03;;
39890;SDS011;25564;53.312;9.790;2023-03-26T04:51:00;7.37;;;1.93;;
39890;SDS011;25564;53.312;9.790;2023-03-26T04:53:31;7.63;;;2.10;;
39890;SDS011;25564;53.312;9.790;2023-03-26T04:56:26;8.13;;;1.80;;
39890;SDS011;25564;53.312;9.790;2023-03-26T04:59:09;8.03;;;1.57;;
39890;SDS011;25564;53.312;9.790;2023-03-26T05:01:44;9.50;;;1.57;;
39890;SDS011;25564;53.312;9.790;2023-03-26T05:04:16;7.70;;;1.73;;
39890;SDS011;25564;53.312;9.790;2023-03-26T05:06:47;7.60;;;2.33;;
39890;SDS011;25564;53.312;9.790;2023-03-26T05:09:20;7.67;;;1.83;;
39890;SDS011;25564;53.312;9.790;2023-03-26T05:11:51;6.10;;;1.90;;
39890;SDS011;25564;53.312;9.790;2023-03-26T05:14:23;15.03;;;1.70;;
39890;SDS011;25564;53.312;9.790;2023-03-26T05:16:55;9.70;;;2.13;;
39890;SDS011;25564;53.312;9.790;2023-03-26T05:19:27;6.53;;;1.37;;
39890;SDS011;25564;53.312;9.790;2023-03-26T05:21:58;10.67;;;2.50;;
39890;SDS011;25564;53.312;9.790;2023-03-26T05:24:29;12.37;;;2.30;;
39890;SDS011;25564;53.312;9.790;2023-03-26T05:27:01;12.20;;;2.53;;
39890;SDS011;25564;53.312;9.790;2023-03-26T05:29:32;7.80;;;1.63;;
39890;SDS011;25564;53.312;9.790;2023-03-26T05:32:04;8.33;;;1.30;;
39890;SDS011;25564;53.312;9.790;2023-03-26T05:38:05;7.18;;;1.98;;
39890;SDS011;25564;53.312;9.790;2023-03-26T05:40:36;4.60;;;1.20;;
39890;SDS011;25564;53.312;9.790;2023-03-26T05:43:08;5.13;;;1.27;;
39890;SDS011;25564;53.312;9.790;2023-03-26T05:45:39;7.23;;;1.83;;
39890;SDS011;25564;53.312;9.790;2023-03-26T05:48:12;5.77;;;1.47;;
39890;SDS011;25564;53.312;9.790;2023-03-26T05:50:43;5.63;;;2.13;;
39890;SDS011;25564;53.312;9.790;2023-03-26T05:53:14;10.47;;;1.90;;
39890;SDS011;25564;53.312;9.790;2023-03-26T05:55:46;5.30;;;1.73;;
39890;SDS011;25564;53.312;9.790;2023-03-26T05:58:29;10.20;;;1.60;;
39890;SDS011;25564;53.312;9.790;2023-03-26T06:01:03;6.57;;;1.63;;
39890;SDS011;25564;53.312;9.790;2023-03-26T06:03:38;7.90;;;1.83;;
39890;SDS011;25564;53.312;9.790;2023-03-26T06:06:11;5.37;;;1.63;;
39890;SDS011;25564;53.312;9.790;2023-03-26T06:08:48;9.97;;;1.83;;
39890;SDS011;25564;53.312;9.790;2023-03-26T06:11:32;5.90;;;1.33;;
39890;SDS011;25564;53.312;9.790;2023-03-26T06:14:04;5.47;;;1.60;;
39890;SDS011;25564;53.312;9.790;2023-03-26T06:16:37;4.57;;;1.60;;
39890;SDS011;25564;53.312;9.790;2023-03-26T06:19:08;7.20;;;1.63;;
39890;SDS011;25564;53.312;9.790;2023-03-26T06:21:39;7.07;;;1.37;;
39890;SDS011;25564;53.312;9.790;2023-03-26T06:24:11;9.67;;;1.97;;
39890;SDS011;25564;53.312;9.790;2023-03-26T06:26:42;9.67;;;1.97;;
39890;SDS011;25564;53.312;9.790;2023-03-26T06:29:14;6.07;;;1.33;;
39890;SDS011;25564;53.312;9.790;2023-03-26T06:31:45;6.37;;;1.80;;
39890;SDS011;25564;53.312;9.790;2023-03-26T06:34:16;5.50;;;1.33;;
39890;SDS011;25564;53.312;9.790;2023-03-26T06:36:48;7.07;;;1.80;;
39890;SDS011;25564;53.312;9.790;2023-03-26T06:39:22;5.67;;;1.63;;
39890;SDS011;25564;53.312;9.790;2023-03-26T06:41:54;5.93;;;1.70;;
39890;SDS011;25564;53.312;9.790;2023-03-26T06:44:25;6.23;;;1.70;;
39890;SDS011;25564;53.312;9.790;2023-03-26T06:46:57;5.57;;;1.30;;
39890;SDS011;25564;53.312;9.790;2023-03-26T06:49:28;10.10;;;1.73;;
39890;SDS011;25564;53.312;9.790;2023-03-26T06:51:59;7.27;;;2.07;;
39890;SDS011;25564;53.312;9.790;2023-03-26T06:54:33;11.17;;;2.20;;
39890;SDS011;25564;53.312;9.790;2023-03-26T06:57:04;9.13;;;1.53;;
39890;SDS011;25564;53.312;9.790;2023-03-26T06:59:36;9.70;;;1.83;;
39890;SDS011;25564;53.312;9.790;2023-03-26T07:02:08;8.50;;;2.10;;
39890;SDS011;25564;53.312;9.790;2023-03-26T07:04:41;10.90;;;2.90;;
39890;SDS011;25564;53.312;9.790;2023-03-26T07:07:12;9.57;;;1.90;;
39890;SDS011;25564;53.312;9.790;2023-03-26T07:09:44;8.63;;;1.60;;
39890;SDS011;25564;53.312;9.790;2023-03-26T07:12:15;7.13;;;2.03;;
39890;SDS011;25564;53.312;9.790;2023-03-26T07:14:47;8.30;;;2.00;;
39890;SDS011;25564;53.312;9.790;2023-03-26T07:17:18;11.33;;;3.13;;
39890;SDS011;25564;53.312;9.790;2023-03-26T07:19:50;8.43;;;1.47;;
39890;SDS011;25564;53.312;9.790;2023-03-26T07:22:23;10.30;;;2.00;;
39890;SDS011;25564;53.312;9.790;2023-03-26T07:24:55;9.97;;;1.77;;
39890;SDS011;25564;53.312;9.790;2023-03-26T07:36:23;6.33;;;2.00;;
39890;SDS011;25564;53.312;9.790;2023-03-26T07:39:10;5.17;;;1.53;;
39890;SDS011;25564;53.312;9.790;2023-03-26T07:41:58;9.33;;;1.40;;
39890;SDS011;25564;53.312;9.790;2023-03-26T07:50:02;16.33;;;3.33;;
39890;SDS011;25564;53.312;9.790;2023-03-26T07:52:34;8.13;;;2.37;;
39890;SDS011;25564;53.312;9.790;2023-03-26T07:55:06;7.63;;;2.00;;
39890;SDS011;25564;53.312;9.790;2023-03-26T07:57:41;11.07;;;2.37;;
39890;SDS011;25564;53.312;9.790;2023-03-26T08:00:24;8.80;;;1.80;;
39890;SDS011;25564;53.312;9.790;2023-03-26T08:03:17;4.77;;;1.93;;
39890;SDS011;25564;53.312;9.790;2023-03-26T08:06:36;11.20;;;1.40;;
39890;SDS011;25564;53.312;9.790;2023-03-26T08:09:17;5.73;;;1.53;;
39890;SDS011;25564;53.312;9.790;2023-03-26T08:11:56;10.50;;;2.03;;
39890;SDS011;25564;53.312;9.790;2023-03-26T08:14:46;9.80;;;2.53;;
39890;SDS011;25564;53.312;9.790;2023-03-26T08:17:27;7.17;;;1.60;;
39890;SDS011;25564;53.312;9.790;2023-03-26T08:22:41;9.70;;;1.53;;
39890;SDS011;25564;53.312;9.790;2023-03-26T08:25:34;6.13;;;1.43;;
39890;SDS011;25564;53.312;9.790;2023-03-26T08:28:28;10.27;;;2.00;;
39890;SDS011;25564;53.312;9.790;2023-03-26T08:31:05;7.20;;;1.73;;
39890;SDS011;25564;53.312;9.790;2023-03-26T08:33:39;7.63;;;2.27;;
39890;SDS011;25564;53.312;9.790;2023-03-26T08:36:11;7.23;;;1.50;;
39890;SDS011;25564;53.312;9.790;2023-03-26T08:38:42;7.77;;;1.60;;
39890;SDS011;25564;53.312;9.790;2023-03-26T08:41:21;11.33;;;2.47;;
39890;SDS011;25564;53.312;9.790;2023-03-26T08:44:33;13.77;;;2.40;;
39890;SDS011;25564;53.312;9.790;2023-03-26T08:53:20;7.20;;;2.37;;
39890;SDS011;25564;53.312;9.790;2023-03-26T08:57:02;13.20;;;2.20;;
39890;SDS011;25564;53.312;9.790;2023-03-26T09:02:14;6.97;;;1.80;;
39890;SDS011;25564;53.312;9.790;2023-03-26T09:07:41;8.67;;;1.77;;
39890;SDS011;25564;53.312;9.790;2023-03-26T09:21:43;10.57;;;2.63;;
39890;SDS011;25564;53.312;9.790;2023-03-26T09:24:44;10.23;;;3.17;;
39890;SDS011;25564;53.312;9.790;2023-03-26T09:30:58;7.73;;;1.90;;
39890;SDS011;25564;53.312;9.790;2023-03-26T09:33:52;17.43;;;2.77;;
39890;SDS011;25564;53.312;9.790;2023-03-26T09:39:29;9.27;;;2.10;;
39890;SDS011;25564;53.312;9.790;2023-03-26T09:42:15;9.30;;;1.98;;
39890;SDS011;25564;53.312;9.790;2023-03-26T09:45:00;14.80;;;2.40;;
39890;SDS011;25564;53.312;9.790;2023-03-26T09:50:48;10.40;;;1.80;;
39890;SDS011;25564;53.312;9.790;2023-03-26T09:53:50;12.63;;;2.80;;
39890;SDS011;25564;53.312;9.790;2023-03-26T09:56:53;16.47;;;2.87;;
39890;SDS011;25564;53.312;9.790;2023-03-26T09:59:53;14.23;;;3.37;;
39890;SDS011;25564;53.312;9.790;2023-03-26T10:02:39;12.67;;;2.33;;
39890;SDS011;25564;53.312;9.790;2023-03-26T10:05:30;8.70;;;2.37;;
39890;SDS011;25564;53.312;9.790;2023-03-26T10:28:23;8.47;;;2.27;;
39890;SDS011;25564;53.312;9.790;2023-03-26T10:31:35;14.70;;;2.00;;
39890;SDS011;25564;53.312;9.790;2023-03-26T10:40:32;16.93;;;2.07;;
39890;SDS011;25564;53.312;9.790;2023-03-26T10:51:59;10.70;;;2.60;;
39890;SDS011;25564;53.312;9.790;2023-03-26T10:54:49;14.43;;;2.50;;
39890;SDS011;25564;53.312;9.790;2023-03-26T10:57:33;9.37;;;2.90;;
39890;SDS011;25564;53.312;9.790;2023-03-26T11:00:18;9.27;;;2.40;;
39890;SDS011;25564;53.312;9.790;2023-03-26T11:08:35;14.10;;;3.40;;
39890;SDS011;25564;53.312;9.790;2023-03-26T11:13:54;10.13;;;2.57;;
39890;SDS011;25564;53.312;9.790;2023-03-26T11:24:06;9.70;;;2.73;;
39890;SDS011;25564;53.312;9.790;2023-03-26T11:27:03;10.30;;;2.63;;
39890;SDS011;25564;53.312;9.790;2023-03-26T11:32:42;15.27;;;2.50;;
39890;SDS011;25564;53.312;9.790;2023-03-26T11:40:55;7.73;;;2.20;;
39890;SDS011;25564;53.312;9.790;2023-03-26T11:43:32;12.70;;;2.13;;
39890;SDS011;25564;53.312;9.790;2023-03-26T11:46:09;12.43;;;2.57;;
39890;SDS011;25564;53.312;9.790;2023-03-26T11:48:44;11.93;;;2.77;;
39890;SDS011;25564;53.312;9.790;2023-03-26T11:54:01;11.10;;;1.70;;
39890;SDS011;25564;53.312;9.790;2023-03-26T12:02:29;8.97;;;2.27;;
39890;SDS011;25564;53.312;9.790;2023-03-26T12:07:45;15.13;;;2.42;;
39890;SDS011;25564;53.312;9.790;2023-03-26T12:12:57;11.03;;;2.30;;
39890;SDS011;25564;53.312;9.790;2023-03-26T12:15:30;13.87;;;3.00;;
39890;SDS011;25564;53.312;9.790;2023-03-26T12:18:16;9.77;;;2.70;;
39890;SDS011;25564;53.312;9.790;2023-03-26T12:24:00;5.50;;;1.90;;
39890;SDS011;25564;53.312;9.790;2023-03-26T12:29:13;9.43;;;2.27;;
39890;SDS011;25564;53.312;9.790;2023-03-26T12:31:57;8.47;;;2.10;;
39890;SDS011;25564;53.312;9.790;2023-03-26T12:34:35;13.20;;;3.63;;
39890;SDS011;25564;53.312;9.790;2023-03-26T12:37:44;10.57;;;1.73;;
39890;SDS011;25564;53.312;9.790;2023-03-26T12:45:50;12.13;;;2.03;;
39890;SDS011;25564;53.312;9.790;2023-03-26T12:48:45;6.33;;;1.67;;
39890;SDS011;25564;53.312;9.790;2023-03-26T12:51:21;9.57;;;2.27;;
39890;SDS011;25564;53.312;9.790;2023-03-26T13:22:56;10.13;;;1.60;;
39890;SDS011;25564;53.312;9.790;2023-03-26T13:34:27;8.13;;;2.00;;
39890;SDS011;25564;53.312;9.790;2023-03-26T13:37:20;11.87;;;2.77;;
39890;SDS011;25564;53.312;9.790;2023-03-26T13:40:02;12.40;;;2.33;;
39890;SDS011;25564;53.312;9.790;2023-03-26T13:42:50;11.00;;;1.80;;
39890;SDS011;25564;53.312;9.790;2023-03-26T13:48:41;6.27;;;2.33;;
39890;SDS011;25564;53.312;9.790;2023-03-26T13:51:29;10.80;;;2.10;;
39890;SDS011;25564;53.312;9.790;2023-03-26T13:56:51;7.37;;;1.87;;
39890;SDS011;25564;53.312;9.790;2023-03-26T13:59:30;11.87;;;2.00;;
39890;SDS011;25564;53.312;9.790;2023-03-26T14:02:52;7.83;;;2.10;;
39890;SDS011;25564;53.312;9.790;2023-03-26T14:05:10;8.80;;;1.55;;
39890;SDS011;25564;53.312;9.790;2023-03-26T14:07:59;6.97;;;1.60;;
39890;SDS011;25564;53.312;9.790;2023-03-26T14:10:42;6.70;;;1.67;;
39890;SDS011;25564;53.312;9.790;2023-03-26T14:13:21;6.20;;;1.47;;
39890;SDS011;25564;53.312;9.790;2023-03-26T14:16:03;14.23;;;2.53;;
39890;SDS011;25564;53.312;9.790;2023-03-26T14:21:49;6.30;;;1.20;;
39890;SDS011;25564;53.312;9.790;2023-03-26T14:25:07;7.70;;;1.73;;
39890;SDS011;25564;53.312;9.790;2023-03-26T14:30:57;14.23;;;2.97;;
39890;SDS011;25564;53.312;9.790;2023-03-26T14:33:51;12.13;;;2.87;;
39890;SDS011;25564;53.312;9.790;2023-03-26T14:50:45;5.80;;;1.67;;
39890;SDS011;25564;53.312;9.790;2023-03-26T14:53:32;20.17;;;1.93;;
39890;SDS011;25564;53.312;9.790;2023-03-26T15:13:19;10.87;;;2.13;;
39890;SDS011;25564;53.312;9.790;2023-03-26T15:34:31;8.27;;;2.00;;
39890;SDS011;25564;53.312;9.790;2023-03-26T15:45:43;8.37;;;1.80;;
39890;SDS011;25564;53.312;9.790;2023-03-26T15:48:41;5.27;;;1.40;;
39890;SDS011;25564;53.312;9.790;2023-03-26T15:57:18;9.60;;;1.58;;
39890;SDS011;25564;53.312;9.790;2023-03-26T16:03:00;10.60;;;3.00;;
39890;SDS011;25564;53.312;9.790;2023-03-26T16:09:03;11.00;;;2.00;;
39890;SDS011;25564;53.312;9.790;2023-03-26T16:14:43;9.67;;;2.40;;
39890;SDS011;25564;53.312;9.790;2023-03-26T16:20:46;10.93;;;2.27;;
39890;SDS011;25564;53.312;9.790;2023-03-26T16:23:29;7.47;;;2.10;;
39890;SDS011;25564;53.312;9.790;2023-03-26T16:26:20;8.87;;;2.73;;
39890;SDS011;25564;53.312;9.790;2023-03-26T16:29:11;10.35;;;2.53;;
39890;SDS011;25564;53.312;9.790;2023-03-26T16:35:37;13.00;;;2.87;;
39890;SDS011;25564;53.312;9.790;2023-03-26T16:38:13;12.97;;;2.00;;
39890;SDS011;25564;53.312;9.790;2023-03-26T16:41:01;8.07;;;1.97;;
39890;SDS011;25564;53.312;9.790;2023-03-26T16:54:54;10.33;;;2.10;;
39890;SDS011;25564;53.312;9.790;2023-03-26T16:57:40;8.67;;;1.80;;
39890;SDS011;25564;53.312;9.790;2023-03-26T17:00:27;4.73;;;1.30;;
39890;SDS011;25564;53.312;9.790;2023-03-26T17:12:02;4.80;;;1.60;;
39890;SDS011;25564;53.312;9.790;2023-03-26T17:14:52;4.73;;;1.00;;
39890;SDS011;25564;53.312;9.790;2023-03-26T17:20:41;6.00;;;1.80;;
39890;SDS011;25564;53.312;9.790;2023-03-26T17:32:07;3.70;;;0.83;;
39890;SDS011;25564;53.312;9.790;2023-03-26T17:34:51;5.70;;;1.23;;
39890;SDS011;25564;53.312;9.790;2023-03-26T17:37:30;5.10;;;0.90;;
39890;SDS011;25564;53.312;9.790;2023-03-26T17:40:28;1.67;;;1.00;;
39890;SDS011;25564;53.312;9.790;2023-03-26T17:43:32;5.80;;;1.03;;
39890;SDS011;25564;53.312;9.790;2023-03-26T17:46:32;5.40;;;1.20;;
39890;SDS011;25564;53.312;9.790;2023-03-26T17:49:20;3.93;;;1.43;;
39890;SDS011;25564;53.312;9.790;2023-03-26T17:51:57;5.60;;;1.80;;
39890;SDS011;25564;53.312;9.790;2023-03-26T17:54:37;5.50;;;1.00;;
39890;SDS011;25564;53.312;9.790;2023-03-26T18:00:21;3.63;;;1.60;;
39890;SDS011;25564;53.312;9.790;2023-03-26T18:06:01;9.45;;;1.55;;
39890;SDS011;25564;53.312;9.790;2023-03-26T18:08:48;4.27;;;1.30;;
39890;SDS011;25564;53.312;9.790;2023-03-26T18:17:07;5.87;;;0.90;;
39890;SDS011;25564;53.312;9.790;2023-03-26T18:19:46;3.20;;;1.00;;
39890;SDS011;25564;53.312;9.790;2023-03-26T18:22:24;3.90;;;1.77;;
39890;SDS011;25564;53.312;9.790;2023-03-26T18:24:59;6.53;;;1.47;;
39890;SDS011;25564;53.312;9.790;2023-03-26T18:27:34;2.10;;;1.20;;
39890;SDS011;25564;53.312;9.790;2023-03-26T18:30:19;6.83;;;1.13;;
39890;SDS011;25564;53.312;9.790;2023-03-26T18:33:09;3.30;;;0.80;;
39890;SDS011;25564;53.312;9.790;2023-03-26T18:35:48;4.83;;;1.60;;
39890;SDS011;25564;53.312;9.790;2023-03-26T18:38:22;4.40;;;1.33;;
39890;SDS011;25564;53.312;9.790;2023-03-26T18:41:06;5.10;;;1.97;;
39890;SDS011;25564;53.312;9.790;2023-03-26T18:43:45;2.60;;;1.20;;
39890;SDS011;25564;53.312;9.790;2023-03-26T18:46:17;7.80;;;1.43;;
39890;SDS011;25564;53.312;9.790;2023-03-26T18:48:49;4.47;;;1.40;;
39890;SDS011;25564;53.312;9.790;2023-03-26T18:51:22;3.07;;;1.00;;
39890;SDS011;25564;53.312;9.790;2023-03-26T18:53:57;4.20;;;0.90;;
39890;SDS011;25564;53.312;9.790;2023-03-26T18:56:35;6.20;;;1.20;;
39890;SDS011;25564;53.312;9.790;2023-03-26T18:59:22;2.97;;;1.30;;
39890;SDS011;25564;53.312;9.790;2023-03-26T19:01:58;5.60;;;1.23;;
39890;SDS011;25564;53.312;9.790;2023-03-26T19:04:34;3.40;;;0.77;;
39890;SDS011;25564;53.312;9.790;2023-03-26T19:07:07;4.33;;;1.00;;
39890;SDS011;25564;53.312;9.790;2023-03-26T19:09:43;3.67;;;1.20;;
39890;SDS011;25564;53.312;9.790;2023-03-26T19:12:17;3.60;;;1.30;;
39890;SDS011;25564;53.312;9.790;2023-03-26T19:14:54;2.03;;;1.27;;
39890;SDS011;25564;53.312;9.790;2023-03-26T19:17:41;3.55;;;0.93;;
39890;SDS011;25564;53.312;9.790;2023-03-26T19:20:24;2.47;;;0.90;;
39890;SDS011;25564;53.312;9.790;2023-03-26T19:22:57;4.90;;;1.10;;
39890;SDS011;25564;53.312;9.790;2023-03-26T19:25:34;4.50;;;1.47;;
39890;SDS011;25564;53.312;9.790;2023-03-26T19:28:53;4.20;;;1.10;;
39890;SDS011;25564;53.312;9.790;2023-03-26T19:31:35;6.87;;;1.10;;
39890;SDS011;25564;53.312;9.790;2023-03-26T19:36:50;3.23;;;0.80;;
39890;SDS011;25564;53.312;9.790;2023-03-26T19:40:11;5.33;;;1.57;;
39890;SDS011;25564;53.312;9.790;2023-03-26T19:42:25;3.07;;;1.37;;
39890;SDS011;25564;53.312;9.790;2023-03-26T19:45:16;3.50;;;1.60;;
39890;SDS011;25564;53.312;9.790;2023-03-26T19:47:49;3.70;;;1.03;;
39890;SDS011;25564;53.312;9.790;2023-03-26T19:50:41;4.17;;;0.70;;
39890;SDS011;25564;53.312;9.790;2023-03-26T19:53:20;3.03;;;1.00;;
39890;SDS011;25564;53.312;9.790;2023-03-26T19:55:56;4.70;;;1.20;;
39890;SDS011;25564;53.312;9.790;2023-03-26T19:58:31;1.87;;;0.73;;
39890;SDS011;25564;53.312;9.790;2023-03-26T20:01:03;3.70;;;0.77;;
39890;SDS011;25564;53.312;9.790;2023-03-26T20:03:35;1.70;;;0.80;;
39890;SDS011;25564;53.312;9.790;2023-03-26T20:06:11;3.65;;;0.63;;
39890;SDS011;25564;53.312;9.790;2023-03-26T20:08:44;2.90;;;1.00;;
39890;SDS011;25564;53.312;9.790;2023-03-26T20:14:18;8.37;;;1.10;;
39890;SDS011;25564;53.312;9.790;2023-03-26T20:16:56;2.13;;;1.60;;
39890;SDS011;25564;53.312;9.790;2023-03-26T20:19:27;4.47;;;1.03;;
39890;SDS011;25564;53.312;9.790;2023-03-26T20:21:59;8.80;;;0.90;;
39890;SDS011;25564;53.312;9.790;2023-03-26T20:24:31;3.13;;;1.40;;
39890;SDS011;25564;53.312;9.790;2023-03-26T20:27:02;3.80;;;0.90;;
39890;SDS011;25564;53.312;9.790;2023-03-26T20:29:34;9.70;;;1.37;;
39890;SDS011;25564;53.312;9.790;2023-03-26T20:32:16;4.37;;;1.10;;
39890;SDS011;25564;53.312;9.790;2023-03-26T20:34:55;4.60;;;1.10;;
39890;SDS011;25564;53.312;9.790;2023-03-26T20:37:27;4.70;;;1.00;;
39890;SDS011;25564;53.312;9.790;2023-03-26T20:39:59;3.60;;;0.93;;
39890;SDS011;25564;53.312;9.790;2023-03-26T20:42:30;4.77;;;1.10;;
39890;SDS011;25564;53.312;9.790;2023-03-26T20:45:05;6.27;;;0.97;;
39890;SDS011;25564;53.312;9.790;2023-03-26T20:47:45;4.53;;;1.40;;
39890;SDS011;25564;53.312;9.790;2023-03-26T20:50:20;4.53;;;0.90;;
39890;SDS011;25564;53.312;9.790;2023-03-26T20:52:56;1.87;;;0.93;;
39890;SDS011;25564;53.312;9.790;2023-03-26T20:55:30;4.17;;;0.80;;
39890;SDS011;25564;53.312;9.790;2023-03-26T20:58:02;5.13;;;1.00;;
39890;SDS011;25564;53.312;9.790;2023-03-26T21:00:34;2.70;;;1.20;;
39890;SDS011;25564;53.312;9.790;2023-03-26T21:03:08;7.67;;;1.10;;
39890;SDS011;25564;53.312;9.790;2023-03-26T21:05:42;5.10;;;1.23;;
39890;SDS011;25564;53.312;9.790;2023-03-26T21:08:16;1.93;;;1.10;;
39890;SDS011;25564;53.312;9.790;2023-03-26T21:10:49;10.93;;;1.43;;
39890;SDS011;25564;53.312;9.790;2023-03-26T21:16:13;3.50;;;1.10;;
39890;SDS011;25564;53.312;9.790;2023-03-26T21:18:46;5.53;;;1.20;;
39890;SDS011;25564;53.312;9.790;2023-03-26T21:29:20;1.52;;;0.93;;
39890;SDS011;25564;53.312;9.790;2023-03-26T21:31:52;7.07;;;1.37;;
39890;SDS011;25564;53.312;9.790;2023-03-26T21:34:25;5.27;;;1.40;;
39890;SDS011;25564;53.312;9.790;2023-03-26T21:36:58;3.47;;;0.97;;
39890;SDS011;25564;53.312;9.790;2023-03-26T21:39:31;7.90;;;1.73;;